• Join FlightAware (Why Join?)
  • Login
  • US Flag 
03:28PM EDT


 

Airport Tracker/Info


-or-


 

Live Flight TrackerFlight Track Log ✈ N204BG ✈ 02-May-2013 ✈ KBHM - 3J7

Flight Track Log - Related Links

Times and Time Zones

All times are in EDT time to prevent confusion due to time zone crossing. See the N204BG flight status page for this flight to view local times or setup timezone preferences in your user account.

Time Position Orientation Groundspeed Altitude Reporting Facility
EDT Latitude Longitude Course Direction KTS MPH feet Rate Location/Type
09:10AM 33.5744 -86.7514 36° Northeast 168 193 1,400  Level Atlanta Center
09:10AM 33.5936 -86.7347 36° Northeast 189 217 2,600 2,220 Climbing Atlanta Center
09:11AM 33.6061 -86.6453 80° East 225 259 5,400 2,280 Climbing Atlanta Center
09:12AM 33.5931 -86.5625 101° East 237 273 7,900 2,280 Climbing Atlanta Center
09:13AM 33.5550 -86.4842 120° Southeast 244 281 10,000 1,560 Climbing Atlanta Center
09:14AM 33.5089 -86.3881 120° Southeast 274 315 11,100 1,500 Climbing Atlanta Center
09:15AM 33.5108 -86.2811 89° East 292 336 13,100 1,980 Climbing Atlanta Center
09:16AM 33.5189 -86.1792 85° East 298 343 15,100 1,860 Climbing Atlanta Center
09:17AM 33.5250 -86.0747 86° East 298 343 16,900 900 Climbing Atlanta Center
09:18AM 33.5350 -85.9578 84° East 325 374 17,000  Climbing Atlanta Center
09:19AM 33.5433 -85.8333 85° East 351 404 17,000  Level Atlanta Center
09:20AM 33.5511 -85.7164 85° East 356 410 17,000  Level Atlanta Center
09:21AM 33.5569 -85.5969 87° East 361 415 17,000  Level Atlanta Center
09:22AM 33.5667 -85.4797 84° East 361 415 17,000  Level Atlanta Center
09:23AM 33.5742 -85.3603 86° East 361 415 17,000  Level Atlanta Center
09:24AM 33.5797 -85.2406 87° East 361 415 17,000 240 Level Atlanta Center
09:25AM 33.5869 -85.1261 86° East 355 409 17,500 960 Climbing Atlanta Center
09:26AM 33.5961 -85.0264 84° East 327 376 19,000 720 Climbing Atlanta Center
09:27AM 33.6011 -84.9242 87° East 316 364 19,000  Level Atlanta Center
09:28AM 33.6081 -84.8094 86° East 317 365 19,000  Level Atlanta Center
09:29AM 33.6150 -84.6947 86° East 322 371 19,000  Level Atlanta Center
09:30AM 33.6219 -84.5875 86° East 328 377 19,000  Level Atlanta Center
09:31AM 33.6222 -84.4853 90° East 328 377 19,000  Level Atlanta Center
09:32AM 33.6247 -84.3731 88° East 328 377 19,000  Level Atlanta Center
09:33AM 33.6250 -84.2558 90° East 333 383 19,000 -360 Level Atlanta Center
09:34AM 33.6189 -84.1411 94° East 333 383 18,300 -1,020 Descending Atlanta Center
09:35AM 33.6189 -84.0339 90° East 333 383 17,000 -1,440 Descending Atlanta Center
09:36AM 33.6167 -83.9242 91° East 328 377 15,500 -1,560 Descending Atlanta Center
09:37AM 33.6125 -83.8167 93° East 328 377 13,900 -1,800 Descending Atlanta Center
09:38AM 33.6122 -83.7094 90° East 328 377 12,000 -2,160 Descending Atlanta Center
09:39AM 33.6411 -83.5997 72° East 318 366 9,600 -2,160 Descending Atlanta Center
09:40AM 33.6825 -83.5169 59° Northeast 297 342 7,700 -1,980 Descending Atlanta Center
09:41AM 33.7114 -83.4394 66° East 270 311 5,700 -2,040 Descending Atlanta Center
09:42AM 33.7194 -83.3619 83° East 243 280 3,700 -1,320 Descending Atlanta Center
09:43AM 33.7314 -83.2919 78° East 229 264 3,100 -300 Descending Atlanta Center
09:44AM 33.7394 -83.2244 82° East 212 244 3,100  Level Atlanta Center
09:45AM 33.7472 -83.1619 81° East 199 229 3,100 -180 Level Atlanta Center
09:46AM 33.7428 -83.1044 95° East 185 213 2,800 -120 Descending Atlanta Center
09:48AM 33.7333 -83.0333 99° East 155 178 2,800  Level Atlanta TRACON
09:49AM 33.7000 -83.0000 140° Southeast 149 171 2,800  Level Atlanta TRACON
09:50AM 33.6667 -83.0167 203° Southwest 169 194 2,800 -300 Level Atlanta TRACON
09:51AM 33.6333 -83.0500 220° Southwest 155 178 2,300 -540 Descending Atlanta TRACON